Decoded Metar for KSPF (SPEARFISH/CLYDE in SD, USA) (IATA:SPF) | Meteo·Mobile Aviation Weather
aviador You're here:

KSPF Decoded Metar

SPEARFISH/CLYDE in SD, USA
Report Time2018-10-22 14:35:00
UTC Time2018-10-22 14:54:41
Flight Rules vfr VFR
Wind300° at 06 kt
W.Decomp.*RWY 31: 5.6 kt HW 2.2 kt LCW
RWY 26: 5.2 kt HW 2.9 kt RCW
RWY 22: 2.2 kt HW 5.6 kt RCW
W.Rank300° ranks 2
Current wind is below 300° avg. (10.9)
Visibility9999 m
Phenomena:N/A
Clouds:N/A
Expected CloudBase > 2,400 ft AGL from Temp-Dew spread
CeilingNone
Temp07°C (ISA -0)
Dew Point01°C (66% RH)
AAT3.0°C
QNH1023 hPa
Density Alt3,632 ft
Elevation3,898 ft
Report Wrong Elevation
Raw Report
KSPF 221435Z AUTO 30006KT 10SM CLR 07/01 A3021 RMK AO2 PWINO=

Extra information for KSPF:More info

Metar Taf Metar & Taf Last 4 Metars F.Rules Stats Wind Profile Meteogram Temp Stats Airport Information Weather charts Add Link Nearby VenuesMetar ALERT Operation Metar Decoded Social comments

AIRNAV info for KSPF